Time;durP1;ratioP1;P1;durP2;ratioP2;P2;SDS_P1;SDS_P2;PMS_P1;PMS_P2;Temp;Humidity;BMP_temperature;BMP_pressure;BME280_temperature;BME280_humidity;BME280_pressure;Samples;Min_cycle;Max_cycle;Signal;HPM_P1;HPM_P2
2023/04/04 00:00:47;;;;;;;4.35;2.10;;;;;;;;;;5035828;28;21025;-64
2023/04/04 00:03:12;;;;;;;4.85;1.88;;;;;;;;;;5027664;28;20025;-64
2023/04/04 00:05:37;;;;;;;3.65;1.88;;;;;;;;;;5030825;28;20909;-64
2023/04/04 00:08:03;;;;;;;6.28;2.55;;;;;;;;;;5038898;28;20024;-63
2023/04/04 00:10:28;;;;;;;7.45;2.30;;;;;;;;;;5057222;28;20032;-63
2023/04/04 00:12:53;;;;;;;5.43;1.95;;;;;;;;;;5074067;28;20029;-63
2023/04/04 00:15:18;;;;;;;6.03;2.22;;;;;;;;;;5071194;28;20039;-63
2023/04/04 00:17:44;;;;;;;6.93;2.40;;;;;;;;;;5075687;28;20051;-63
2023/04/04 00:20:10;;;;;;;5.32;1.98;;;;;;;;;;5071902;28;20075;-63
2023/04/04 00:22:35;;;;;;;4.55;2.10;;;;;;;;;;5071351;28;20040;-63
2023/04/04 00:25:00;;;;;;;7.85;2.70;;;;;;;;;;5071021;28;20029;-63
2023/04/04 00:27:26;;;;;;;6.68;2.55;;;;;;;;;;5071171;28;20073;-63
2023/04/04 00:29:51;;;;;;;4.93;2.42;;;;;;;;;;5084620;28;20387;-63
2023/04/04 00:32:16;;;;;;;6.75;2.78;;;;;;;;;;5074599;28;20024;-63
2023/04/04 00:34:42;;;;;;;7.13;2.13;;;;;;;;;;5071252;28;20073;-63
2023/04/04 00:37:10;;;;;;;10.57;2.58;;;;;;;;;;5078944;28;20021;-64
2023/04/04 00:39:36;;;;;;;9.80;2.55;;;;;;;;;;5071883;28;20059;-64
2023/04/04 00:42:01;;;;;;;4.07;2.25;;;;;;;;;;5070970;28;20059;-64
2023/04/04 00:44:26;;;;;;;11.75;3.22;;;;;;;;;;5070810;28;20525;-64
2023/04/04 00:46:52;;;;;;;5.88;2.90;;;;;;;;;;5071113;28;20028;-64
2023/04/04 00:49:17;;;;;;;5.28;2.30;;;;;;;;;;5079026;28;20027;-64
2023/04/04 00:51:42;;;;;;;4.30;2.40;;;;;;;;;;5071973;28;20019;-64
2023/04/04 00:54:08;;;;;;;5.55;2.60;;;;;;;;;;5081911;28;20650;-63
2023/04/04 00:56:35;;;;;;;4.53;2.47;;;;;;;;;;5079637;28;20116;-63
2023/04/04 00:59:01;;;;;;;6.63;2.65;;;;;;;;;;5076447;28;20059;-64
2023/04/04 01:01:26;;;;;;;9.10;3.08;;;;;;;;;;5084032;28;20514;-64
2023/04/04 01:03:51;;;;;;;6.15;2.67;;;;;;;;;;5077526;28;20029;-64
2023/04/04 01:06:17;;;;;;;4.63;2.17;;;;;;;;;;5086545;28;20548;-64
2023/04/04 01:08:42;;;;;;;5.70;2.47;;;;;;;;;;5073946;28;20028;-64
2023/04/04 01:11:08;;;;;;;6.28;2.80;;;;;;;;;;5073921;28;20028;-64
2023/04/04 01:13:34;;;;;;;5.50;2.95;;;;;;;;;;5074001;28;20025;-64
2023/04/04 01:16:00;;;;;;;6.18;2.83;;;;;;;;;;5089116;28;20035;-64
2023/04/04 01:18:26;;;;;;;11.65;3.00;;;;;;;;;;5084630;28;20475;-64
2023/04/04 01:21:20;;;;;;;5.82;2.67;;;;;;;;;;5074266;28;20025;-64
2023/04/04 01:23:45;;;;;;;5.32;2.80;;;;;;;;;;5052889;28;20491;-64
2023/04/04 01:26:11;;;;;;;4.07;2.45;;;;;;;;;;5075367;28;20055;-64
2023/04/04 01:28:36;;;;;;;5.00;2.15;;;;;;;;;;5080296;28;20475;-64
2023/04/04 01:31:05;;;;;;;4.78;2.40;;;;;;;;;;5073764;28;20024;-64
2023/04/04 01:33:38;;;;;;;6.60;2.33;;;;;;;;;;5075328;28;20037;-64
2023/04/04 01:36:09;;;;;;;6.45;2.90;;;;;;;;;;5073587;28;20048;-63
2023/04/04 01:38:35;;;;;;;5.80;2.67;;;;;;;;;;5073591;28;20040;-63
2023/04/04 01:41:01;;;;;;;7.00;2.58;;;;;;;;;;5085332;28;20577;-63
2023/04/04 01:43:29;;;;;;;4.95;2.75;;;;;;;;;;5073990;28;20021;-63
2023/04/04 01:45:54;;;;;;;6.68;2.50;;;;;;;;;;5073983;28;20453;-63
2023/04/04 01:48:19;;;;;;;5.50;2.60;;;;;;;;;;5073605;28;20032;-63
2023/04/04 01:50:46;;;;;;;7.13;3.00;;;;;;;;;;5072931;28;20382;-63
2023/04/04 01:53:11;;;;;;;6.95;2.90;;;;;;;;;;5073778;28;20032;-63
2023/04/04 01:55:37;;;;;;;7.32;3.10;;;;;;;;;;5073687;28;20086;-63
2023/04/04 01:58:02;;;;;;;7.43;3.00;;;;;;;;;;5073348;28;20406;-63
2023/04/04 02:00:27;;;;;;;4.78;2.38;;;;;;;;;;5076644;28;20021;-63
2023/04/04 02:02:53;;;;;;;7.32;2.83;;;;;;;;;;5072086;28;20039;-63
2023/04/04 02:05:18;;;;;;;6.50;3.05;;;;;;;;;;5073512;28;20056;-63
2023/04/04 02:07:48;;;;;;;6.38;2.80;;;;;;;;;;5072327;28;20139;-63
2023/04/04 02:10:13;;;;;;;9.70;3.30;;;;;;;;;;5072811;28;20063;-64
2023/04/04 02:12:38;;;;;;;5.80;2.70;;;;;;;;;;5073675;28;20440;-63
2023/04/04 02:15:05;;;;;;;6.22;3.03;;;;;;;;;;5073027;28;20024;-64
2023/04/04 02:17:30;;;;;;;5.95;3.03;;;;;;;;;;5073095;28;20071;-64
2023/04/04 02:19:56;;;;;;;5.38;3.15;;;;;;;;;;5073559;28;20382;-64
2023/04/04 02:22:21;;;;;;;7.30;3.28;;;;;;;;;;5074056;28;20071;-64
2023/04/04 02:24:47;;;;;;;10.00;2.90;;;;;;;;;;5072875;28;20029;-64
2023/04/04 02:27:12;;;;;;;7.07;3.50;;;;;;;;;;5073016;28;20016;-63
2023/04/04 02:29:37;;;;;;;5.65;3.20;;;;;;;;;;5072854;28;20491;-63
2023/04/04 02:32:02;;;;;;;6.63;2.55;;;;;;;;;;5072889;28;20024;-63
2023/04/04 02:34:27;;;;;;;8.50;3.22;;;;;;;;;;5072888;28;20027;-63
2023/04/04 02:36:53;;;;;;;4.68;2.90;;;;;;;;;;5072557;28;20379;-63
2023/04/04 02:39:18;;;;;;;6.97;2.70;;;;;;;;;;5072308;28;20119;-63
2023/04/04 02:41:43;;;;;;;4.57;2.60;;;;;;;;;;5072702;28;20098;-63
2023/04/04 02:44:09;;;;;;;5.75;2.63;;;;;;;;;;5072858;28;20020;-63
2023/04/04 02:46:34;;;;;;;6.38;3.47;;;;;;;;;;5072779;28;20032;-63
2023/04/04 02:49:00;;;;;;;9.18;3.22;;;;;;;;;;5072504;28;20406;-63
2023/04/04 02:51:26;;;;;;;10.27;3.15;;;;;;;;;;5072529;28;20107;-63
2023/04/04 02:53:51;;;;;;;6.85;2.85;;;;;;;;;;5077597;28;20091;-63
2023/04/04 02:56:16;;;;;;;8.35;3.40;;;;;;;;;;5078892;28;20046;-63
2023/04/04 02:58:42;;;;;;;5.32;3.00;;;;;;;;;;5072352;28;20040;-63
2023/04/04 03:01:07;;;;;;;7.30;3.30;;;;;;;;;;5072795;28;20506;-63
2023/04/04 03:03:32;;;;;;;6.72;3.65;;;;;;;;;;5072255;28;20021;-63
2023/04/04 03:05:58;;;;;;;6.50;3.10;;;;;;;;;;5071929;28;20054;-63
2023/04/04 03:08:23;;;;;;;6.88;3.05;;;;;;;;;;5085615;28;20029;-63
2023/04/04 03:10:49;;;;;;;9.60;3.20;;;;;;;;;;5072057;28;20028;-63
2023/04/04 03:13:14;;;;;;;7.05;3.15;;;;;;;;;;5071948;28;20154;-63
2023/04/04 03:15:39;;;;;;;7.38;3.55;;;;;;;;;;5071397;28;20181;-63
2023/04/04 03:18:05;;;;;;;5.93;3.22;;;;;;;;;;5072841;28;20023;-63
2023/04/04 03:20:30;;;;;;;12.35;3.65;;;;;;;;;;5074438;28;20024;-64
2023/04/04 03:22:56;;;;;;;7.10;3.53;;;;;;;;;;5083690;28;20013;-63
2023/04/04 03:25:21;;;;;;;8.75;3.63;;;;;;;;;;5072079;28;20027;-63
2023/04/04 03:27:47;;;;;;;9.00;3.90;;;;;;;;;;5054104;28;20012;-63
2023/04/04 03:30:12;;;;;;;6.32;3.67;;;;;;;;;;5071792;28;20490;-63
2023/04/04 03:32:41;;;;;;;8.85;3.60;;;;;;;;;;5071759;28;20119;-63
2023/04/04 03:35:06;;;;;;;5.88;3.45;;;;;;;;;;5071864;28;20020;-63
2023/04/04 03:37:32;;;;;;;7.70;4.05;;;;;;;;;;5084419;28;20390;-63
2023/04/04 03:39:57;;;;;;;9.63;4.72;;;;;;;;;;5071148;28;20563;-64
2023/04/04 03:42:22;;;;;;;8.02;3.72;;;;;;;;;;5071402;28;20087;-63
2023/04/04 03:44:47;;;;;;;9.70;3.95;;;;;;;;;;5071503;28;20051;-64
2023/04/04 03:47:13;;;;;;;9.85;6.18;;;;;;;;;;5071681;28;20028;-64
2023/04/04 03:49:38;;;;;;;16.13;8.48;;;;;;;;;;5074488;28;20035;-64
2023/04/04 03:52:03;;;;;;;17.77;11.48;;;;;;;;;;5071762;28;20021;-64
2023/04/04 03:54:29;;;;;;;23.30;12.60;;;;;;;;;;5071752;28;20543;-63
2023/04/04 03:56:55;;;;;;;21.15;14.40;;;;;;;;;;5071499;28;20067;-63
2023/04/04 03:59:21;;;;;;;14.70;10.68;;;;;;;;;;5072054;28;20021;-63
2023/04/04 04:01:47;;;;;;;16.60;12.18;;;;;;;;;;5088174;28;20028;-63
2023/04/04 04:04:12;;;;;;;17.02;8.55;;;;;;;;;;5077086;28;20025;-63
2023/04/04 04:06:37;;;;;;;14.27;8.82;;;;;;;;;;5071203;28;20024;-64
2023/04/04 04:09:02;;;;;;;11.75;8.27;;;;;;;;;;5071346;28;20025;-63
2023/04/04 04:11:28;;;;;;;8.85;5.30;;;;;;;;;;5071421;28;20025;-63
2023/04/04 04:13:53;;;;;;;9.23;4.43;;;;;;;;;;5071001;28;20097;-63
2023/04/04 04:16:18;;;;;;;8.35;4.80;;;;;;;;;;5075550;28;20383;-63
2023/04/04 04:18:44;;;;;;;11.05;5.65;;;;;;;;;;5078898;28;20067;-63
2023/04/04 04:21:09;;;;;;;9.02;5.50;;;;;;;;;;5070995;28;20715;-63
2023/04/04 04:23:34;;;;;;;14.02;8.68;;;;;;;;;;5047892;28;20029;-63
2023/04/04 04:25:59;;;;;;;12.38;7.82;;;;;;;;;;5034295;28;20020;-63
2023/04/04 04:28:25;;;;;;;12.70;8.40;;;;;;;;;;5042425;28;20024;-64
2023/04/04 04:30:50;;;;;;;7.57;5.38;;;;;;;;;;5032995;28;20951;-63
2023/04/04 04:33:16;;;;;;;10.73;4.28;;;;;;;;;;5031458;28;20477;-63
2023/04/04 04:35:41;;;;;;;6.85;3.50;;;;;;;;;;5044242;28;20024;-63
2023/04/04 04:38:06;;;;;;;9.93;5.80;;;;;;;;;;5041016;28;20029;-63
2023/04/04 04:40:32;;;;;;;9.25;6.57;;;;;;;;;;5032814;28;20039;-63
2023/04/04 04:42:57;;;;;;;10.10;4.80;;;;;;;;;;5071449;28;20055;-63
2023/04/04 04:45:22;;;;;;;10.40;5.75;;;;;;;;;;5077793;28;20028;-63
2023/04/04 04:47:48;;;;;;;11.00;5.90;;;;;;;;;;5074615;28;20386;-63
2023/04/04 04:50:13;;;;;;;10.90;4.85;;;;;;;;;;5074370;28;20028;-64
2023/04/04 04:52:39;;;;;;;9.55;5.05;;;;;;;;;;5073856;28;20027;-63
2023/04/04 04:55:04;;;;;;;8.13;4.57;;;;;;;;;;5074407;28;20048;-63
2023/04/04 04:57:30;;;;;;;11.20;5.20;;;;;;;;;;5074545;28;20063;-63
2023/04/04 04:59:56;;;;;;;11.30;5.00;;;;;;;;;;5074554;28;20028;-64
2023/04/04 05:02:23;;;;;;;8.18;5.15;;;;;;;;;;5063261;28;20024;-63
2023/04/04 05:04:48;;;;;;;6.97;4.55;;;;;;;;;;5079867;28;20494;-64
2023/04/04 05:07:13;;;;;;;8.82;4.55;;;;;;;;;;5082563;28;20066;-64
2023/04/04 05:09:39;;;;;;;6.75;4.20;;;;;;;;;;5079526;28;20391;-63
2023/04/04 05:15:07;;;;;;;9.30;4.72;;;;;;;;;;5074185;28;20039;-64
2023/04/04 05:17:34;;;;;;;8.00;4.40;;;;;;;;;;5073917;28;20032;-63
2023/04/04 05:19:59;;;;;;;6.63;4.22;;;;;;;;;;5073972;28;20024;-64
2023/04/04 05:22:25;;;;;;;6.10;4.00;;;;;;;;;;5087527;28;20028;-63
2023/04/04 05:24:51;;;;;;;6.85;4.00;;;;;;;;;;5074019;28;20404;-63
2023/04/04 05:27:16;;;;;;;8.02;3.85;;;;;;;;;;5087415;28;20028;-63
2023/04/04 05:29:41;;;;;;;8.82;4.60;;;;;;;;;;5074317;28;20031;-64
2023/04/04 05:32:07;;;;;;;6.72;4.30;;;;;;;;;;5086459;28;20028;-63
2023/04/04 05:34:32;;;;;;;8.43;4.65;;;;;;;;;;5073655;28;20024;-63
2023/04/04 05:36:57;;;;;;;13.07;4.55;;;;;;;;;;5072751;28;20040;-63
2023/04/04 05:39:23;;;;;;;14.02;4.43;;;;;;;;;;5081625;28;20028;-65
2023/04/04 05:41:48;;;;;;;6.03;3.15;;;;;;;;;;5074397;28;20024;-62
2023/04/04 05:44:13;;;;;;;7.57;4.30;;;;;;;;;;5066621;28;20050;-63
2023/04/04 05:46:38;;;;;;;6.70;3.80;;;;;;;;;;5042994;28;20943;-63
2023/04/04 05:49:04;;;;;;;5.38;3.63;;;;;;;;;;5078905;28;20020;-63
2023/04/04 05:51:30;;;;;;;7.95;4.55;;;;;;;;;;5082105;28;20469;-64
2023/04/04 05:53:55;;;;;;;7.75;3.72;;;;;;;;;;5073870;28;20060;-63
2023/04/04 05:56:20;;;;;;;13.48;4.28;;;;;;;;;;5072723;28;20421;-64
2023/04/04 05:58:46;;;;;;;9.13;5.43;;;;;;;;;;5085188;28;20099;-63
2023/04/04 06:01:11;;;;;;;11.15;4.43;;;;;;;;;;5073071;28;20139;-63
2023/04/04 06:03:36;;;;;;;11.75;5.45;;;;;;;;;;5073195;28;20020;-63
2023/04/04 06:06:03;;;;;;;11.02;4.38;;;;;;;;;;5077912;28;20024;-63
2023/04/04 06:08:28;;;;;;;8.18;4.82;;;;;;;;;;5087816;28;20398;-64
2023/04/04 06:10:54;;;;;;;8.15;4.80;;;;;;;;;;5074387;28;20016;-63
2023/04/04 06:13:20;;;;;;;9.80;4.53;;;;;;;;;;5093267;28;20432;-63
2023/04/04 06:15:45;;;;;;;6.43;4.28;;;;;;;;;;5069392;28;20027;-63
2023/04/04 06:18:10;;;;;;;8.13;5.20;;;;;;;;;;5052812;28;20040;-63
2023/04/04 06:20:36;;;;;;;9.98;5.07;;;;;;;;;;5071669;28;20024;-63
2023/04/04 06:23:03;;;;;;;13.98;5.85;;;;;;;;;;5046541;28;20848;-63
2023/04/04 06:25:29;;;;;;;8.50;5.65;;;;;;;;;;5039367;28;20020;-63
2023/04/04 06:27:55;;;;;;;8.75;5.28;;;;;;;;;;5033610;28;20027;-63
2023/04/04 06:30:20;;;;;;;10.02;5.80;;;;;;;;;;5038802;28;20899;-63
2023/04/04 06:32:45;;;;;;;13.30;6.40;;;;;;;;;;5034952;28;20822;-63
2023/04/04 06:35:10;;;;;;;10.80;5.32;;;;;;;;;;5035572;28;20028;-63
2023/04/04 06:37:36;;;;;;;8.73;4.75;;;;;;;;;;5036174;28;20032;-63
2023/04/04 06:40:01;;;;;;;11.27;4.82;;;;;;;;;;5034197;28;20033;-63
2023/04/04 06:42:27;;;;;;;7.45;4.60;;;;;;;;;;5031958;28;20924;-63
2023/04/04 06:44:52;;;;;;;11.88;4.57;;;;;;;;;;5033482;28;20845;-63
2023/04/04 06:47:17;;;;;;;11.02;4.57;;;;;;;;;;5042333;28;20032;-63
2023/04/04 06:49:42;;;;;;;11.10;4.93;;;;;;;;;;5033269;28;20172;-63
2023/04/04 06:52:08;;;;;;;14.30;4.55;;;;;;;;;;5037879;28;20026;-63
2023/04/04 06:54:33;;;;;;;7.93;4.00;;;;;;;;;;5046426;28;20572;-63
2023/04/04 06:56:58;;;;;;;8.82;3.95;;;;;;;;;;5046211;28;20032;-63
2023/04/04 06:59:23;;;;;;;6.95;3.60;;;;;;;;;;5069939;28;20459;-63
2023/04/04 07:01:49;;;;;;;7.75;3.78;;;;;;;;;;5077613;28;20033;-63
2023/04/04 07:04:17;;;;;;;8.40;3.90;;;;;;;;;;5072002;28;20042;-63
2023/04/04 07:06:42;;;;;;;20.88;4.40;;;;;;;;;;5077882;28;20541;-63
2023/04/04 07:09:08;;;;;;;7.60;3.35;;;;;;;;;;5082145;28;20028;-63
2023/04/04 07:11:33;;;;;;;6.80;3.60;;;;;;;;;;5071349;28;20089;-63
2023/04/04 07:13:58;;;;;;;6.05;3.08;;;;;;;;;;5069498;28;20095;-63
2023/04/04 07:16:23;;;;;;;8.43;3.55;;;;;;;;;;5071783;28;20032;-64
2023/04/04 07:18:49;;;;;;;8.50;2.95;;;;;;;;;;5072410;28;20044;-63
2023/04/04 07:21:16;;;;;;;6.70;3.22;;;;;;;;;;5070153;28;20039;-63
2023/04/04 07:23:41;;;;;;;4.82;2.90;;;;;;;;;;5071277;28;20024;-63
2023/04/04 07:26:06;;;;;;;6.70;3.28;;;;;;;;;;5071080;28;20021;-64
2023/04/04 07:28:32;;;;;;;7.18;2.70;;;;;;;;;;5079188;28;20012;-63
2023/04/04 07:31:03;;;;;;;6.07;2.65;;;;;;;;;;5070925;28;20574;-63
2023/04/04 07:33:28;;;;;;;8.85;2.60;;;;;;;;;;5080053;28;20425;-63
2023/04/04 07:35:53;;;;;;;5.25;2.55;;;;;;;;;;5071236;28;20047;-63
2023/04/04 07:38:19;;;;;;;5.55;2.88;;;;;;;;;;5084854;28;20024;-64
2023/04/04 07:40:44;;;;;;;6.30;3.70;;;;;;;;;;5074241;28;20020;-63
2023/04/04 07:43:09;;;;;;;6.32;2.88;;;;;;;;;;5070630;28;20040;-63
2023/04/04 07:45:35;;;;;;;9.35;3.53;;;;;;;;;;5071252;28;20024;-63
2023/04/04 07:48:00;;;;;;;5.88;2.90;;;;;;;;;;5071308;28;20459;-63
2023/04/04 07:50:26;;;;;;;5.53;3.22;;;;;;;;;;5069944;28;20142;-63
2023/04/04 07:52:53;;;;;;;4.20;2.33;;;;;;;;;;5069206;28;20469;-63
2023/04/04 07:55:19;;;;;;;6.55;3.03;;;;;;;;;;5072396;28;20077;-64
2023/04/04 07:57:44;;;;;;;6.55;2.92;;;;;;;;;;5078787;28;20020;-64
2023/04/04 08:00:10;;;;;;;8.43;2.80;;;;;;;;;;5069560;28;20024;-63
2023/04/04 08:02:36;;;;;;;4.15;2.38;;;;;;;;;;5069916;28;20182;-64
2023/04/04 08:05:01;;;;;;;4.65;2.78;;;;;;;;;;5069587;28;20522;-64
2023/04/04 08:07:26;;;;;;;7.70;2.42;;;;;;;;;;5069935;28;20159;-63
2023/04/04 08:09:52;;;;;;;3.92;2.08;;;;;;;;;;5069857;28;20100;-63
2023/04/04 08:12:17;;;;;;;4.32;2.45;;;;;;;;;;5082433;28;20035;-64
2023/04/04 08:14:42;;;;;;;5.65;2.58;;;;;;;;;;5070619;28;20127;-63
2023/04/04 08:17:08;;;;;;;5.47;2.78;;;;;;;;;;5070772;28;20028;-63
2023/04/04 08:19:33;;;;;;;4.32;2.30;;;;;;;;;;5071906;28;20036;-63
2023/04/04 08:21:58;;;;;;;6.47;3.15;;;;;;;;;;5069565;28;20044;-63
2023/04/04 08:24:24;;;;;;;5.78;2.17;;;;;;;;;;5073729;28;20107;-63
2023/04/04 08:26:49;;;;;;;4.13;2.30;;;;;;;;;;5071236;28;20025;-63
2023/04/04 08:29:14;;;;;;;7.40;3.22;;;;;;;;;;5080272;28;20033;-63
2023/04/04 08:31:40;;;;;;;4.35;2.55;;;;;;;;;;5067503;28;20391;-63
2023/04/04 08:34:07;;;;;;;7.47;2.75;;;;;;;;;;5070749;28;20019;-63
2023/04/04 08:36:32;;;;;;;4.32;2.40;;;;;;;;;;5073059;28;20037;-63
2023/04/04 08:38:58;;;;;;;4.38;2.15;;;;;;;;;;5071010;28;20436;-63
2023/04/04 08:41:24;;;;;;;7.18;2.70;;;;;;;;;;5070885;28;20364;-63
2023/04/04 08:43:53;;;;;;;4.43;2.22;;;;;;;;;;5076655;28;20796;-63
2023/04/04 08:46:20;;;;;;;9.50;2.55;;;;;;;;;;5070207;28;20029;-63
2023/04/04 08:48:46;;;;;;;5.88;2.38;;;;;;;;;;5071549;28;20505;-63
2023/04/04 08:51:12;;;;;;;7.35;3.00;;;;;;;;;;5070182;28;20063;-63
2023/04/04 08:53:38;;;;;;;6.82;2.33;;;;;;;;;;5067710;28;20024;-63
2023/04/04 08:56:04;;;;;;;4.95;2.45;;;;;;;;;;5069461;28;20024;-63
2023/04/04 08:58:29;;;;;;;3.45;1.88;;;;;;;;;;5070412;28;20028;-63
2023/04/04 09:00:55;;;;;;;5.97;2.70;;;;;;;;;;5070073;28;20029;-64
2023/04/04 09:03:25;;;;;;;7.20;2.45;;;;;;;;;;5076053;28;20355;-63
2023/04/04 09:05:50;;;;;;;5.53;2.80;;;;;;;;;;5069556;28;20027;-63
2023/04/04 09:08:17;;;;;;;6.40;3.03;;;;;;;;;;5068531;28;20028;-63
2023/04/04 09:10:43;;;;;;;5.18;1.88;;;;;;;;;;5064946;28;20016;-63
2023/04/04 09:13:08;;;;;;;8.10;2.40;;;;;;;;;;5056504;28;20048;-63
2023/04/04 09:15:37;;;;;;;4.57;2.47;;;;;;;;;;5071589;28;20028;-63
2023/04/04 09:18:02;;;;;;;4.60;2.45;;;;;;;;;;5072341;28;20032;-63
2023/04/04 09:20:34;;;;;;;4.68;2.28;;;;;;;;;;5073392;28;20471;-63
2023/04/04 09:23:00;;;;;;;7.22;2.08;;;;;;;;;;5073092;28;20717;-63
2023/04/04 09:25:25;;;;;;;5.35;2.42;;;;;;;;;;5073006;28;20029;-63
2023/04/04 09:27:52;;;;;;;6.53;2.60;;;;;;;;;;5072865;28;20028;-63
2023/04/04 09:30:17;;;;;;;4.25;2.40;;;;;;;;;;5072657;28;20028;-63
2023/04/04 09:32:43;;;;;;;4.20;2.20;;;;;;;;;;5075887;28;20756;-65
2023/04/04 09:35:09;;;;;;;4.97;2.38;;;;;;;;;;5078547;28;20016;-64
2023/04/04 09:37:35;;;;;;;6.68;2.38;;;;;;;;;;5078010;28;20069;-64
2023/04/04 09:40:00;;;;;;;4.57;2.47;;;;;;;;;;5073176;28;20071;-64
2023/04/04 09:42:26;;;;;;;4.20;2.47;;;;;;;;;;5073693;28;20027;-64
2023/04/04 09:44:54;;;;;;;6.85;2.60;;;;;;;;;;5072812;28;20025;-64
2023/04/04 09:47:29;;;;;;;7.32;2.53;;;;;;;;;;5072340;28;20028;-64
2023/04/04 09:50:02;;;;;;;4.35;2.25;;;;;;;;;;5068598;28;20502;-64
2023/04/04 09:52:30;;;;;;;6.65;1.98;;;;;;;;;;5070074;28;20032;-64
2023/04/04 09:54:59;;;;;;;3.65;1.83;;;;;;;;;;5070070;28;20032;-63
2023/04/04 09:57:28;;;;;;;3.45;1.83;;;;;;;;;;5072321;28;20025;-64
2023/04/04 09:59:58;;;;;;;3.72;2.05;;;;;;;;;;5071767;28;20048;-64
2023/04/04 10:02:23;;;;;;;4.68;2.38;;;;;;;;;;5071558;28;20107;-64
2023/04/04 10:04:56;;;;;;;5.53;2.42;;;;;;;;;;5076430;28;20040;-64
2023/04/04 10:07:22;;;;;;;6.40;2.20;;;;;;;;;;5078003;28;20031;-64
2023/04/04 10:09:51;;;;;;;4.88;2.28;;;;;;;;;;5039830;28;20027;-64
2023/04/04 10:12:20;;;;;;;4.10;2.15;;;;;;;;;;5041518;28;20040;-64
2023/04/04 10:14:46;;;;;;;8.30;2.35;;;;;;;;;;5033868;28;20130;-64
2023/04/04 10:17:12;;;;;;;3.45;1.98;;;;;;;;;;5061188;28;20040;-63
2023/04/04 10:19:37;;;;;;;5.13;2.45;;;;;;;;;;5080620;28;20017;-63
2023/04/04 10:22:06;;;;;;;7.50;2.40;;;;;;;;;;5073246;28;20032;-64
2023/04/04 10:24:32;;;;;;;8.50;2.08;;;;;;;;;;5062719;28;21003;-63
2023/04/04 10:26:57;;;;;;;4.93;2.03;;;;;;;;;;5033421;28;20070;-64
2023/04/04 10:29:23;;;;;;;4.85;2.05;;;;;;;;;;5043138;28;20033;-64
2023/04/04 10:31:51;;;;;;;5.90;2.70;;;;;;;;;;5070286;28;20033;-63
2023/04/04 10:34:17;;;;;;;5.00;2.10;;;;;;;;;;5072151;28;20124;-64
2023/04/04 10:36:46;;;;;;;5.10;2.10;;;;;;;;;;5071966;28;20108;-64
2023/04/04 10:39:17;;;;;;;4.93;2.20;;;;;;;;;;5072450;28;20020;-63
2023/04/04 10:41:44;;;;;;;7.57;2.13;;;;;;;;;;5072755;28;20037;-64
2023/04/04 10:44:29;;;;;;;3.33;1.70;;;;;;;;;;5072783;28;20079;-64
2023/04/04 10:46:57;;;;;;;4.75;2.33;;;;;;;;;;5072490;28;20017;-64
2023/04/04 10:49:22;;;;;;;4.43;2.20;;;;;;;;;;5072757;28;20398;-64
2023/04/04 10:51:48;;;;;;;4.03;2.25;;;;;;;;;;5075174;28;20012;-64
2023/04/04 10:54:14;;;;;;;5.63;2.55;;;;;;;;;;5072782;28;20052;-64
2023/04/04 10:56:40;;;;;;;5.40;2.47;;;;;;;;;;5075250;28;20031;-64
2023/04/04 10:59:13;;;;;;;4.55;2.13;;;;;;;;;;5075495;28;20041;-64
2023/04/04 11:01:59;;;;;;;8.57;2.50;;;;;;;;;;5077663;28;20387;-64
2023/04/04 11:04:30;;;;;;;8.10;2.47;;;;;;;;;;5076048;28;20075;-64
2023/04/04 11:07:09;;;;;;;6.70;2.53;;;;;;;;;;5077596;28;20019;-63
2023/04/04 11:09:54;;;;;;;4.00;2.10;;;;;;;;;;5075045;28;20104;-64
2023/04/04 11:12:22;;;;;;;5.68;2.28;;;;;;;;;;5072155;28;20025;-64
2023/04/04 11:14:59;;;;;;;6.43;2.55;;;;;;;;;;5072048;28;20389;-64
2023/04/04 11:17:49;;;;;;;5.07;2.58;;;;;;;;;;5072145;28;20048;-64
2023/04/04 11:20:16;;;;;;;5.60;2.75;;;;;;;;;;5072261;28;20028;-65
2023/04/04 11:22:42;;;;;;;3.45;2.03;;;;;;;;;;5072128;28;20024;-64
2023/04/04 11:25:26;;;;;;;10.05;3.05;;;;;;;;;;5071718;28;20483;-64
2023/04/04 11:27:55;;;;;;;5.10;2.80;;;;;;;;;;5081526;28;20017;-64
2023/04/04 11:30:20;;;;;;;4.50;2.15;;;;;;;;;;5071941;28;20729;-64
2023/04/04 11:32:49;;;;;;;4.97;2.53;;;;;;;;;;5071868;28;20021;-64
2023/04/04 11:35:15;;;;;;;7.57;2.53;;;;;;;;;;5071036;28;20024;-64
2023/04/04 11:37:58;;;;;;;5.57;2.50;;;;;;;;;;5080872;28;20034;-64
2023/04/04 11:40:33;;;;;;;6.07;2.33;;;;;;;;;;5073165;28;20066;-64
2023/04/04 11:43:02;;;;;;;7.18;2.97;;;;;;;;;;5084296;28;20024;-64
2023/04/04 11:45:28;;;;;;;4.03;2.40;;;;;;;;;;5071615;28;20028;-64
2023/04/04 11:47:54;;;;;;;4.60;2.47;;;;;;;;;;5071316;28;20093;-64
2023/04/04 11:50:20;;;;;;;5.60;2.92;;;;;;;;;;5071682;28;20487;-64
2023/04/04 11:52:45;;;;;;;5.85;2.67;;;;;;;;;;5084957;28;20020;-64
2023/04/04 11:55:28;;;;;;;4.20;2.55;;;;;;;;;;5075157;28;20075;-64
2023/04/04 11:57:57;;;;;;;12.38;2.53;;;;;;;;;;5071547;28;20486;-65
2023/04/04 12:00:28;;;;;;;3.75;2.30;;;;;;;;;;5071095;28;20028;-64
2023/04/04 12:02:54;;;;;;;3.45;2.03;;;;;;;;;;5071780;28;20029;-64
2023/04/04 12:05:22;;;;;;;4.22;2.35;;;;;;;;;;5071657;28;20604;-65
2023/04/04 12:07:47;;;;;;;5.80;2.38;;;;;;;;;;5071179;28;20023;-64
2023/04/04 12:10:12;;;;;;;6.15;2.80;;;;;;;;;;5071595;28;20028;-65
2023/04/04 12:12:38;;;;;;;5.75;3.25;;;;;;;;;;5071005;28;20489;-64
2023/04/04 12:15:05;;;;;;;6.38;3.03;;;;;;;;;;5071219;28;20036;-65
2023/04/04 12:17:31;;;;;;;4.72;2.08;;;;;;;;;;5071089;28;20028;-64
2023/04/04 12:19:56;;;;;;;4.35;2.55;;;;;;;;;;5071196;28;20067;-66
2023/04/04 12:22:22;;;;;;;5.35;2.80;;;;;;;;;;5073415;28;20032;-65
2023/04/04 12:24:47;;;;;;;5.15;2.70;;;;;;;;;;5071279;28;20133;-66
2023/04/04 12:27:13;;;;;;;3.55;2.00;;;;;;;;;;5071579;28;20140;-65
2023/04/04 12:29:39;;;;;;;6.10;3.17;;;;;;;;;;5071025;28;20020;-65
2023/04/04 12:32:04;;;;;;;4.45;2.53;;;;;;;;;;5071059;28;20378;-65
2023/04/04 12:34:31;;;;;;;5.93;2.92;;;;;;;;;;5071184;28;20539;-65
2023/04/04 12:36:57;;;;;;;4.25;2.47;;;;;;;;;;5070555;28;20131;-65
2023/04/04 12:39:24;;;;;;;6.95;3.13;;;;;;;;;;5071280;28;20063;-65
2023/04/04 12:41:51;;;;;;;6.35;2.80;;;;;;;;;;5071014;28;20024;-65
2023/04/04 12:44:31;;;;;;;4.90;2.50;;;;;;;;;;5071073;28;20115;-65
2023/04/04 12:46:58;;;;;;;4.43;2.40;;;;;;;;;;5072641;28;20016;-64
2023/04/04 12:49:26;;;;;;;5.50;2.60;;;;;;;;;;5074472;28;20016;-66
2023/04/04 12:51:52;;;;;;;6.13;2.72;;;;;;;;;;5085286;28;20016;-65
2023/04/04 12:54:27;;;;;;;5.15;2.47;;;;;;;;;;5075425;28;20073;-64
2023/04/04 12:57:06;;;;;;;3.75;2.10;;;;;;;;;;5080159;28;20103;-65
2023/04/04 12:59:33;;;;;;;5.75;2.97;;;;;;;;;;5077755;28;20036;-64
2023/04/04 13:02:02;;;;;;;4.80;2.55;;;;;;;;;;5074045;28;20025;-65
2023/04/04 13:04:27;;;;;;;4.47;2.08;;;;;;;;;;5074382;28;21121;-65
2023/04/04 13:06:53;;;;;;;7.68;2.38;;;;;;;;;;5083426;28;20031;-65
2023/04/04 13:09:19;;;;;;;5.72;2.95;;;;;;;;;;5082222;28;20485;-65
2023/04/04 13:12:07;;;;;;;5.55;2.47;;;;;;;;;;5074188;28;20044;-66
2023/04/04 13:14:51;;;;;;;8.30;2.83;;;;;;;;;;5074779;28;20036;-65
2023/04/04 13:17:16;;;;;;;6.15;2.97;;;;;;;;;;5085204;28;20038;-65
2023/04/04 13:19:41;;;;;;;7.10;3.67;;;;;;;;;;5073930;28;20028;-66
2023/04/04 13:22:08;;;;;;;5.53;2.85;;;;;;;;;;5073878;28;20785;-65
2023/04/04 13:24:33;;;;;;;6.18;3.00;;;;;;;;;;5074166;28;20113;-65
2023/04/04 13:26:58;;;;;;;5.50;3.03;;;;;;;;;;5073822;28;20020;-65
2023/04/04 13:29:24;;;;;;;4.72;3.00;;;;;;;;;;5073595;28;20028;-65
2023/04/04 13:31:49;;;;;;;5.75;2.65;;;;;;;;;;5073921;28;20498;-65
2023/04/04 13:34:15;;;;;;;6.85;2.35;;;;;;;;;;5073938;28;20035;-65
2023/04/04 13:36:40;;;;;;;9.02;2.72;;;;;;;;;;5073965;28;20025;-65
2023/04/04 13:39:05;;;;;;;6.95;2.90;;;;;;;;;;5073822;28;20028;-65
2023/04/04 13:41:30;;;;;;;6.75;3.30;;;;;;;;;;5086229;28;20043;-65
2023/04/04 13:43:56;;;;;;;14.23;3.35;;;;;;;;;;5079806;28;20028;-65
2023/04/04 13:46:21;;;;;;;4.03;2.57;;;;;;;;;;5081695;28;20120;-65
2023/04/04 13:48:46;;;;;;;5.65;2.63;;;;;;;;;;5073774;28;20267;-65
2023/04/04 13:51:12;;;;;;;9.13;3.43;;;;;;;;;;5080148;28;20035;-65
2023/04/04 13:53:37;;;;;;;8.75;3.08;;;;;;;;;;5073735;28;20267;-65
2023/04/04 13:56:02;;;;;;;6.10;3.35;;;;;;;;;;5073320;28;20070;-65
2023/04/04 13:58:27;;;;;;;4.68;2.67;;;;;;;;;;5072318;28;20028;-65
2023/04/04 14:00:53;;;;;;;6.30;3.70;;;;;;;;;;5072444;28;20158;-65
2023/04/04 14:03:18;;;;;;;3.97;2.50;;;;;;;;;;5079691;28;20281;-66
2023/04/04 14:05:43;;;;;;;8.53;3.10;;;;;;;;;;5069935;28;20838;-65
2023/04/04 14:08:08;;;;;;;11.75;3.60;;;;;;;;;;5060030;28;20343;-64
2023/04/04 14:10:34;;;;;;;5.85;3.42;;;;;;;;;;5087111;28;20036;-65
2023/04/04 14:12:59;;;;;;;5.45;3.28;;;;;;;;;;5085329;28;20494;-66
2023/04/04 14:15:24;;;;;;;7.70;3.15;;;;;;;;;;5085182;28;20129;-65
2023/04/04 14:17:49;;;;;;;9.50;3.23;;;;;;;;;;5077292;28;20032;-66
2023/04/04 14:20:15;;;;;;;10.27;4.00;;;;;;;;;;5067597;28;21753;-66
2023/04/04 14:22:40;;;;;;;4.90;3.08;;;;;;;;;;5041365;28;20028;-65
2023/04/04 14:25:06;;;;;;;7.45;4.22;;;;;;;;;;5046712;28;20425;-66
2023/04/04 14:27:31;;;;;;;7.78;3.33;;;;;;;;;;5056624;28;20615;-66
2023/04/04 14:29:56;;;;;;;5.43;3.28;;;;;;;;;;5082852;28;20118;-65
2023/04/04 14:32:22;;;;;;;5.47;3.50;;;;;;;;;;5086397;28;20375;-65
2023/04/04 14:34:47;;;;;;;5.50;3.03;;;;;;;;;;5084945;28;20028;-65
2023/04/04 14:37:12;;;;;;;5.85;3.05;;;;;;;;;;5087116;28;20074;-65
2023/04/04 14:39:37;;;;;;;5.67;2.90;;;;;;;;;;5085889;28;20016;-65